sensor_id;sensor_type;location;lat;lon;timestamp;temperature;humidity
43089;DHT22;28709;52.030;5.652;2024-03-17T00:01:04;5.80;99.90
43089;DHT22;28709;52.030;5.652;2024-03-17T00:03:30;5.80;99.90
43089;DHT22;28709;52.030;5.652;2024-03-17T00:06:00;5.90;99.90
43089;DHT22;28709;52.030;5.652;2024-03-17T00:08:26;5.90;99.90
43089;DHT22;28709;52.030;5.652;2024-03-17T00:10:55;5.90;99.90
43089;DHT22;28709;52.030;5.652;2024-03-17T00:13:22;5.90;99.90
43089;DHT22;28709;52.030;5.652;2024-03-17T00:15:48;5.90;99.90
43089;DHT22;28709;52.030;5.652;2024-03-17T00:18:14;5.90;99.90
43089;DHT22;28709;52.030;5.652;2024-03-17T00:20:40;6.00;99.90
43089;DHT22;28709;52.030;5.652;2024-03-17T00:23:06;6.00;99.90
43089;DHT22;28709;52.030;5.652;2024-03-17T00:25:32;6.00;99.90
43089;DHT22;28709;52.030;5.652;2024-03-17T00:28:02;6.00;99.90
43089;DHT22;28709;52.030;5.652;2024-03-17T00:30:28;6.00;99.90
43089;DHT22;28709;52.030;5.652;2024-03-17T00:32:54;6.00;99.90
43089;DHT22;28709;52.030;5.652;2024-03-17T00:35:20;6.00;99.90
43089;DHT22;28709;52.030;5.652;2024-03-17T00:37:49;6.00;99.90
43089;DHT22;28709;52.030;5.652;2024-03-17T00:40:16;6.00;99.90
43089;DHT22;28709;52.030;5.652;2024-03-17T00:42:43;6.00;99.90
43089;DHT22;28709;52.030;5.652;2024-03-17T00:45:10;6.00;99.90
43089;DHT22;28709;52.030;5.652;2024-03-17T00:47:37;6.00;99.90
43089;DHT22;28709;52.030;5.652;2024-03-17T00:50:04;5.90;99.90
43089;DHT22;28709;52.030;5.652;2024-03-17T00:52:31;6.00;99.90
43089;DHT22;28709;52.030;5.652;2024-03-17T00:54:57;6.00;99.90
43089;DHT22;28709;52.030;5.652;2024-03-17T00:57:23;6.00;99.90
43089;DHT22;28709;52.030;5.652;2024-03-17T00:59:49;6.00;99.90
43089;DHT22;28709;52.030;5.652;2024-03-17T01:02:15;6.00;99.90
43089;DHT22;28709;52.030;5.652;2024-03-17T01:04:44;6.00;99.90
43089;DHT22;28709;52.030;5.652;2024-03-17T01:07:10;6.00;99.90
43089;DHT22;28709;52.030;5.652;2024-03-17T01:09:37;6.00;99.90
43089;DHT22;28709;52.030;5.652;2024-03-17T01:12:03;6.00;99.90
43089;DHT22;28709;52.030;5.652;2024-03-17T01:14:29;6.00;99.90
43089;DHT22;28709;52.030;5.652;2024-03-17T01:16:55;6.00;99.90
43089;DHT22;28709;52.030;5.652;2024-03-17T01:19:21;6.00;99.90
43089;DHT22;28709;52.030;5.652;2024-03-17T01:21:47;6.00;99.90
43089;DHT22;28709;52.030;5.652;2024-03-17T01:24:13;6.00;99.90
43089;DHT22;28709;52.030;5.652;2024-03-17T01:26:39;6.00;99.90
43089;DHT22;28709;52.030;5.652;2024-03-17T01:29:04;6.00;99.90
43089;DHT22;28709;52.030;5.652;2024-03-17T01:31:30;6.10;99.90
43089;DHT22;28709;52.030;5.652;2024-03-17T01:33:56;6.10;99.90
43089;DHT22;28709;52.030;5.652;2024-03-17T01:36:22;6.10;99.90
43089;DHT22;28709;52.030;5.652;2024-03-17T01:38:47;6.10;99.90
43089;DHT22;28709;52.030;5.652;2024-03-17T01:41:13;6.10;99.90
43089;DHT22;28709;52.030;5.652;2024-03-17T01:43:39;6.10;99.90
43089;DHT22;28709;52.030;5.652;2024-03-17T01:46:06;6.10;99.90
43089;DHT22;28709;52.030;5.652;2024-03-17T01:48:36;6.10;99.90
43089;DHT22;28709;52.030;5.652;2024-03-17T01:51:02;6.10;99.90
43089;DHT22;28709;52.030;5.652;2024-03-17T01:53:28;6.10;99.90
43089;DHT22;28709;52.030;5.652;2024-03-17T01:55:56;6.10;99.90
43089;DHT22;28709;52.030;5.652;2024-03-17T01:58:25;6.10;99.90
43089;DHT22;28709;52.030;5.652;2024-03-17T02:00:51;6.10;99.90
43089;DHT22;28709;52.030;5.652;2024-03-17T02:03:18;6.10;99.90
43089;DHT22;28709;52.030;5.652;2024-03-17T02:05:44;6.10;99.90
43089;DHT22;28709;52.030;5.652;2024-03-17T02:08:10;6.10;99.90
43089;DHT22;28709;52.030;5.652;2024-03-17T02:10:37;6.10;99.90
43089;DHT22;28709;52.030;5.652;2024-03-17T02:13:03;6.10;99.90
43089;DHT22;28709;52.030;5.652;2024-03-17T02:15:29;6.00;99.90
43089;DHT22;28709;52.030;5.652;2024-03-17T02:17:55;6.00;99.90
43089;DHT22;28709;52.030;5.652;2024-03-17T02:20:21;6.10;99.90
43089;DHT22;28709;52.030;5.652;2024-03-17T02:22:50;6.10;99.90
43089;DHT22;28709;52.030;5.652;2024-03-17T02:25:16;6.10;99.90
43089;DHT22;28709;52.030;5.652;2024-03-17T02:27:41;6.10;99.90
43089;DHT22;28709;52.030;5.652;2024-03-17T02:30:07;6.20;99.90
43089;DHT22;28709;52.030;5.652;2024-03-17T02:32:35;6.20;99.90
43089;DHT22;28709;52.030;5.652;2024-03-17T02:35:01;6.20;99.90
43089;DHT22;28709;52.030;5.652;2024-03-17T02:37:26;6.30;99.90
43089;DHT22;28709;52.030;5.652;2024-03-17T02:39:52;6.30;99.90
43089;DHT22;28709;52.030;5.652;2024-03-17T02:42:18;6.40;99.90
43089;DHT22;28709;52.030;5.652;2024-03-17T02:44:44;6.40;99.90
43089;DHT22;28709;52.030;5.652;2024-03-17T02:47:11;6.40;99.90
43089;DHT22;28709;52.030;5.652;2024-03-17T02:49:40;6.50;99.90
43089;DHT22;28709;52.030;5.652;2024-03-17T02:52:10;6.50;99.90
43089;DHT22;28709;52.030;5.652;2024-03-17T02:54:36;6.60;99.90
43089;DHT22;28709;52.030;5.652;2024-03-17T02:57:05;6.70;99.90
43089;DHT22;28709;52.030;5.652;2024-03-17T02:59:32;6.70;99.90
43089;DHT22;28709;52.030;5.652;2024-03-17T03:01:58;6.70;99.90
43089;DHT22;28709;52.030;5.652;2024-03-17T03:04:25;6.70;99.90
43089;DHT22;28709;52.030;5.652;2024-03-17T03:06:50;6.80;99.90
43089;DHT22;28709;52.030;5.652;2024-03-17T03:09:16;6.80;99.90
43089;DHT22;28709;52.030;5.652;2024-03-17T03:11:50;6.80;99.90
43089;DHT22;28709;52.030;5.652;2024-03-17T03:14:17;6.80;99.90
43089;DHT22;28709;52.030;5.652;2024-03-17T03:16:43;6.80;99.90
43089;DHT22;28709;52.030;5.652;2024-03-17T03:19:09;6.80;99.90
43089;DHT22;28709;52.030;5.652;2024-03-17T03:21:35;6.80;99.90
43089;DHT22;28709;52.030;5.652;2024-03-17T03:24:01;6.80;99.90
43089;DHT22;28709;52.030;5.652;2024-03-17T03:26:27;6.90;99.90
43089;DHT22;28709;52.030;5.652;2024-03-17T03:28:54;6.90;99.90
43089;DHT22;28709;52.030;5.652;2024-03-17T03:31:20;6.90;99.90
43089;DHT22;28709;52.030;5.652;2024-03-17T03:33:47;6.90;99.90
43089;DHT22;28709;52.030;5.652;2024-03-17T03:36:15;6.90;99.90
43089;DHT22;28709;52.030;5.652;2024-03-17T03:38:42;6.90;99.90
43089;DHT22;28709;52.030;5.652;2024-03-17T03:41:14;6.90;99.90
43089;DHT22;28709;52.030;5.652;2024-03-17T03:43:40;6.90;99.90
43089;DHT22;28709;52.030;5.652;2024-03-17T03:46:07;7.00;99.90
43089;DHT22;28709;52.030;5.652;2024-03-17T03:48:33;7.00;99.90
43089;DHT22;28709;52.030;5.652;2024-03-17T03:51:06;6.90;99.90
43089;DHT22;28709;52.030;5.652;2024-03-17T03:53:33;7.00;99.90
43089;DHT22;28709;52.030;5.652;2024-03-17T03:55:59;7.00;99.90
43089;DHT22;28709;52.030;5.652;2024-03-17T03:58:29;7.00;99.90
43089;DHT22;28709;52.030;5.652;2024-03-17T04:00:55;7.00;99.90
43089;DHT22;28709;52.030;5.652;2024-03-17T04:03:22;7.00;99.90
43089;DHT22;28709;52.030;5.652;2024-03-17T04:05:48;7.00;99.90
43089;DHT22;28709;52.030;5.652;2024-03-17T04:08:13;7.00;99.90
43089;DHT22;28709;52.030;5.652;2024-03-17T04:10:39;7.00;99.90
43089;DHT22;28709;52.030;5.652;2024-03-17T04:13:05;7.10;99.90
43089;DHT22;28709;52.030;5.652;2024-03-17T04:15:31;7.10;99.90
43089;DHT22;28709;52.030;5.652;2024-03-17T04:17:56;7.10;99.90
43089;DHT22;28709;52.030;5.652;2024-03-17T04:20:22;7.10;99.90
43089;DHT22;28709;52.030;5.652;2024-03-17T04:22:47;7.10;99.90
43089;DHT22;28709;52.030;5.652;2024-03-17T04:25:14;7.20;99.90
43089;DHT22;28709;52.030;5.652;2024-03-17T04:27:40;7.20;99.90
43089;DHT22;28709;52.030;5.652;2024-03-17T04:30:07;7.20;99.90
43089;DHT22;28709;52.030;5.652;2024-03-17T04:32:33;7.20;99.90
43089;DHT22;28709;52.030;5.652;2024-03-17T04:34:59;7.10;99.90
43089;DHT22;28709;52.030;5.652;2024-03-17T04:37:25;7.20;99.90
43089;DHT22;28709;52.030;5.652;2024-03-17T04:39:50;7.10;99.90
43089;DHT22;28709;52.030;5.652;2024-03-17T04:42:17;7.10;99.90
43089;DHT22;28709;52.030;5.652;2024-03-17T04:44:44;7.00;99.90
43089;DHT22;28709;52.030;5.652;2024-03-17T04:47:10;7.00;99.90
43089;DHT22;28709;52.030;5.652;2024-03-17T04:49:39;7.00;99.90
43089;DHT22;28709;52.030;5.652;2024-03-17T04:52:06;6.90;99.90
43089;DHT22;28709;52.030;5.652;2024-03-17T04:54:32;6.90;99.90
43089;DHT22;28709;52.030;5.652;2024-03-17T04:56:58;6.90;99.90
43089;DHT22;28709;52.030;5.652;2024-03-17T04:59:24;6.90;99.90
43089;DHT22;28709;52.030;5.652;2024-03-17T05:01:50;6.90;99.90
43089;DHT22;28709;52.030;5.652;2024-03-17T05:04:17;6.90;99.90
43089;DHT22;28709;52.030;5.652;2024-03-17T05:06:42;6.90;99.90
43089;DHT22;28709;52.030;5.652;2024-03-17T05:09:18;6.90;99.90
43089;DHT22;28709;52.030;5.652;2024-03-17T05:11:44;6.90;99.90
43089;DHT22;28709;52.030;5.652;2024-03-17T05:14:10;6.90;99.90
43089;DHT22;28709;52.030;5.652;2024-03-17T05:16:36;7.00;99.90
43089;DHT22;28709;52.030;5.652;2024-03-17T05:19:02;7.00;99.90
43089;DHT22;28709;52.030;5.652;2024-03-17T05:21:29;7.00;99.90
43089;DHT22;28709;52.030;5.652;2024-03-17T05:24:00;7.00;99.90
43089;DHT22;28709;52.030;5.652;2024-03-17T05:26:26;7.00;99.90
43089;DHT22;28709;52.030;5.652;2024-03-17T05:28:52;6.90;99.90
43089;DHT22;28709;52.030;5.652;2024-03-17T05:31:19;7.00;99.90
43089;DHT22;28709;52.030;5.652;2024-03-17T05:33:47;6.90;99.90
43089;DHT22;28709;52.030;5.652;2024-03-17T05:36:12;6.90;99.90
43089;DHT22;28709;52.030;5.652;2024-03-17T05:38:38;7.00;99.90
43089;DHT22;28709;52.030;5.652;2024-03-17T05:41:05;6.90;99.90
43089;DHT22;28709;52.030;5.652;2024-03-17T05:43:33;6.90;99.90
43089;DHT22;28709;52.030;5.652;2024-03-17T05:46:02;6.90;99.90
43089;DHT22;28709;52.030;5.652;2024-03-17T05:48:28;7.00;99.90
43089;DHT22;28709;52.030;5.652;2024-03-17T05:50:54;7.00;99.90
43089;DHT22;28709;52.030;5.652;2024-03-17T05:53:21;7.00;99.90
43089;DHT22;28709;52.030;5.652;2024-03-17T05:55:49;7.00;99.90
43089;DHT22;28709;52.030;5.652;2024-03-17T05:58:15;7.00;99.90
43089;DHT22;28709;52.030;5.652;2024-03-17T06:00:41;7.00;99.90
43089;DHT22;28709;52.030;5.652;2024-03-17T06:03:07;7.00;99.90
43089;DHT22;28709;52.030;5.652;2024-03-17T06:05:33;7.00;99.90
43089;DHT22;28709;52.030;5.652;2024-03-17T06:08:00;7.00;99.90
43089;DHT22;28709;52.030;5.652;2024-03-17T06:10:28;7.00;99.90
43089;DHT22;28709;52.030;5.652;2024-03-17T06:12:54;7.00;99.90
43089;DHT22;28709;52.030;5.652;2024-03-17T06:15:19;7.00;99.90
43089;DHT22;28709;52.030;5.652;2024-03-17T06:17:46;7.10;99.90
43089;DHT22;28709;52.030;5.652;2024-03-17T06:20:12;7.10;99.90
43089;DHT22;28709;52.030;5.652;2024-03-17T06:22:39;7.10;99.90
43089;DHT22;28709;52.030;5.652;2024-03-17T06:25:06;7.10;99.90
43089;DHT22;28709;52.030;5.652;2024-03-17T06:27:32;7.10;99.90
43089;DHT22;28709;52.030;5.652;2024-03-17T06:30:00;7.10;99.90
43089;DHT22;28709;52.030;5.652;2024-03-17T06:32:35;7.20;99.90
43089;DHT22;28709;52.030;5.652;2024-03-17T06:35:03;7.20;99.90
43089;DHT22;28709;52.030;5.652;2024-03-17T06:37:29;7.20;99.90
43089;DHT22;28709;52.030;5.652;2024-03-17T06:39:55;7.20;99.90
43089;DHT22;28709;52.030;5.652;2024-03-17T06:42:21;7.30;99.90
43089;DHT22;28709;52.030;5.652;2024-03-17T06:44:46;7.30;99.90
43089;DHT22;28709;52.030;5.652;2024-03-17T06:47:12;7.40;99.90
43089;DHT22;28709;52.030;5.652;2024-03-17T06:49:38;7.40;99.90
43089;DHT22;28709;52.030;5.652;2024-03-17T06:52:04;7.50;99.90
43089;DHT22;28709;52.030;5.652;2024-03-17T06:54:29;7.50;99.90
43089;DHT22;28709;52.030;5.652;2024-03-17T06:56:57;7.60;99.90
43089;DHT22;28709;52.030;5.652;2024-03-17T06:59:23;7.70;99.90
43089;DHT22;28709;52.030;5.652;2024-03-17T07:01:49;7.70;99.90
43089;DHT22;28709;52.030;5.652;2024-03-17T07:04:15;7.80;99.90
43089;DHT22;28709;52.030;5.652;2024-03-17T07:06:42;7.80;99.90
43089;DHT22;28709;52.030;5.652;2024-03-17T07:09:08;7.90;99.90
43089;DHT22;28709;52.030;5.652;2024-03-17T07:11:34;8.00;99.90
43089;DHT22;28709;52.030;5.652;2024-03-17T07:14:00;8.20;99.90
43089;DHT22;28709;52.030;5.652;2024-03-17T07:16:25;8.40;99.90
43089;DHT22;28709;52.030;5.652;2024-03-17T07:18:51;8.60;99.90
43089;DHT22;28709;52.030;5.652;2024-03-17T07:21:21;8.70;99.90
43089;DHT22;28709;52.030;5.652;2024-03-17T07:23:47;8.80;99.90
43089;DHT22;28709;52.030;5.652;2024-03-17T07:26:13;8.80;99.90
43089;DHT22;28709;52.030;5.652;2024-03-17T07:28:39;9.00;99.90
43089;DHT22;28709;52.030;5.652;2024-03-17T07:31:08;9.00;99.90
43089;DHT22;28709;52.030;5.652;2024-03-17T07:33:33;9.00;99.90
43089;DHT22;28709;52.030;5.652;2024-03-17T07:35:59;9.10;99.90
43089;DHT22;28709;52.030;5.652;2024-03-17T07:38:27;9.20;99.90
43089;DHT22;28709;52.030;5.652;2024-03-17T07:41:00;9.30;99.90
43089;DHT22;28709;52.030;5.652;2024-03-17T07:43:27;9.30;99.90
43089;DHT22;28709;52.030;5.652;2024-03-17T07:46:03;9.30;99.90
43089;DHT22;28709;52.030;5.652;2024-03-17T07:48:30;9.40;99.90
43089;DHT22;28709;52.030;5.652;2024-03-17T07:51:04;9.40;99.90
43089;DHT22;28709;52.030;5.652;2024-03-17T07:53:33;9.50;99.90
43089;DHT22;28709;52.030;5.652;2024-03-17T07:56:03;9.60;99.90
43089;DHT22;28709;52.030;5.652;2024-03-17T07:58:30;9.70;99.90
43089;DHT22;28709;52.030;5.652;2024-03-17T08:01:02;9.80;99.90
43089;DHT22;28709;52.030;5.652;2024-03-17T08:03:29;9.90;99.90
43089;DHT22;28709;52.030;5.652;2024-03-17T08:05:55;10.10;99.90
43089;DHT22;28709;52.030;5.652;2024-03-17T08:08:21;10.20;99.90
43089;DHT22;28709;52.030;5.652;2024-03-17T08:10:47;10.30;99.90
43089;DHT22;28709;52.030;5.652;2024-03-17T08:13:19;10.50;99.90
43089;DHT22;28709;52.030;5.652;2024-03-17T08:15:58;11.00;99.90
43089;DHT22;28709;52.030;5.652;2024-03-17T08:18:24;11.30;99.90
43089;DHT22;28709;52.030;5.652;2024-03-17T08:20:50;11.40;99.90
43089;DHT22;28709;52.030;5.652;2024-03-17T08:23:16;11.40;99.90
43089;DHT22;28709;52.030;5.652;2024-03-17T08:25:42;11.30;99.90
43089;DHT22;28709;52.030;5.652;2024-03-17T08:28:07;11.20;99.90
43089;DHT22;28709;52.030;5.652;2024-03-17T08:30:33;11.10;99.90
43089;DHT22;28709;52.030;5.652;2024-03-17T08:33:00;11.00;99.90
43089;DHT22;28709;52.030;5.652;2024-03-17T08:35:25;11.00;99.90
43089;DHT22;28709;52.030;5.652;2024-03-17T08:37:52;11.10;99.90
43089;DHT22;28709;52.030;5.652;2024-03-17T08:40:20;11.00;99.90
43089;DHT22;28709;52.030;5.652;2024-03-17T08:42:46;10.90;99.90
43089;DHT22;28709;52.030;5.652;2024-03-17T08:45:12;10.80;99.90
43089;DHT22;28709;52.030;5.652;2024-03-17T08:47:38;10.70;99.90
43089;DHT22;28709;52.030;5.652;2024-03-17T08:50:04;10.60;99.90
43089;DHT22;28709;52.030;5.652;2024-03-17T08:52:30;10.50;99.90
43089;DHT22;28709;52.030;5.652;2024-03-17T08:54:59;10.50;99.90
43089;DHT22;28709;52.030;5.652;2024-03-17T08:57:25;10.50;99.90
43089;DHT22;28709;52.030;5.652;2024-03-17T08:59:51;10.50;99.90
43089;DHT22;28709;52.030;5.652;2024-03-17T09:02:20;10.50;99.90
43089;DHT22;28709;52.030;5.652;2024-03-17T09:04:47;10.50;99.90
43089;DHT22;28709;52.030;5.652;2024-03-17T09:07:13;10.60;99.90
43089;DHT22;28709;52.030;5.652;2024-03-17T09:09:42;10.60;99.90
43089;DHT22;28709;52.030;5.652;2024-03-17T09:12:08;10.70;99.90
43089;DHT22;28709;52.030;5.652;2024-03-17T09:14:34;10.70;99.90
43089;DHT22;28709;52.030;5.652;2024-03-17T09:17:00;10.70;99.90
43089;DHT22;28709;52.030;5.652;2024-03-17T09:19:26;10.70;99.90
43089;DHT22;28709;52.030;5.652;2024-03-17T09:21:51;10.70;99.90
43089;DHT22;28709;52.030;5.652;2024-03-17T09:24:17;10.70;99.90
43089;DHT22;28709;52.030;5.652;2024-03-17T09:26:43;10.80;99.90
43089;DHT22;28709;52.030;5.652;2024-03-17T09:29:08;10.80;99.90
43089;DHT22;28709;52.030;5.652;2024-03-17T09:31:34;10.80;99.90
43089;DHT22;28709;52.030;5.652;2024-03-17T09:34:04;10.90;99.90
43089;DHT22;28709;52.030;5.652;2024-03-17T09:36:30;10.90;99.90
43089;DHT22;28709;52.030;5.652;2024-03-17T09:38:56;11.00;99.90
43089;DHT22;28709;52.030;5.652;2024-03-17T09:41:24;11.10;99.90
43089;DHT22;28709;52.030;5.652;2024-03-17T09:43:55;11.20;99.90
43089;DHT22;28709;52.030;5.652;2024-03-17T09:46:23;11.30;99.90
43089;DHT22;28709;52.030;5.652;2024-03-17T09:48:49;11.60;99.90
43089;DHT22;28709;52.030;5.652;2024-03-17T09:51:24;11.80;99.90
43089;DHT22;28709;52.030;5.652;2024-03-17T09:53:50;12.10;99.90
43089;DHT22;28709;52.030;5.652;2024-03-17T09:56:17;12.30;99.90
43089;DHT22;28709;52.030;5.652;2024-03-17T09:58:47;12.60;99.90
43089;DHT22;28709;52.030;5.652;2024-03-17T10:01:13;13.00;99.90
43089;DHT22;28709;52.030;5.652;2024-03-17T10:03:49;13.30;99.90
43089;DHT22;28709;52.030;5.652;2024-03-17T10:06:20;13.20;99.90
43089;DHT22;28709;52.030;5.652;2024-03-17T10:09:00;13.30;99.90
43089;DHT22;28709;52.030;5.652;2024-03-17T10:11:42;13.40;99.90
43089;DHT22;28709;52.030;5.652;2024-03-17T10:14:09;13.60;99.90
43089;DHT22;28709;52.030;5.652;2024-03-17T10:16:36;13.80;99.90
43089;DHT22;28709;52.030;5.652;2024-03-17T10:19:14;14.00;99.90
43089;DHT22;28709;52.030;5.652;2024-03-17T10:21:44;14.20;99.90
43089;DHT22;28709;52.030;5.652;2024-03-17T10:24:19;14.20;99.90
43089;DHT22;28709;52.030;5.652;2024-03-17T10:26:56;14.20;99.90
43089;DHT22;28709;52.030;5.652;2024-03-17T10:29:30;14.20;99.90
43089;DHT22;28709;52.030;5.652;2024-03-17T10:31:57;14.10;99.90
43089;DHT22;28709;52.030;5.652;2024-03-17T10:34:25;14.10;99.90
43089;DHT22;28709;52.030;5.652;2024-03-17T10:37:36;14.10;99.90
43089;DHT22;28709;52.030;5.652;2024-03-17T10:39:41;13.90;99.90
43089;DHT22;28709;52.030;5.652;2024-03-17T10:42:09;14.00;99.90
43089;DHT22;28709;52.030;5.652;2024-03-17T10:44:36;13.90;99.90
43089;DHT22;28709;52.030;5.652;2024-03-17T10:47:03;13.70;99.90
43089;DHT22;28709;52.030;5.652;2024-03-17T10:49:36;13.50;99.90
43089;DHT22;28709;52.030;5.652;2024-03-17T10:52:05;13.50;99.90
43089;DHT22;28709;52.030;5.652;2024-03-17T10:54:31;13.50;99.90
43089;DHT22;28709;52.030;5.652;2024-03-17T10:59:51;13.30;99.90
43089;DHT22;28709;52.030;5.652;2024-03-17T11:02:25;13.20;99.90
43089;DHT22;28709;52.030;5.652;2024-03-17T11:04:57;13.10;99.90
43089;DHT22;28709;52.030;5.652;2024-03-17T11:07:23;13.10;99.90
43089;DHT22;28709;52.030;5.652;2024-03-17T11:09:51;13.10;99.90
43089;DHT22;28709;52.030;5.652;2024-03-17T11:12:43;13.10;99.90
43089;DHT22;28709;52.030;5.652;2024-03-17T11:17:54;13.50;99.90
43089;DHT22;28709;52.030;5.652;2024-03-17T11:20:27;13.70;99.90
43089;DHT22;28709;52.030;5.652;2024-03-17T11:22:58;13.80;99.90
43089;DHT22;28709;52.030;5.652;2024-03-17T11:35:50;14.00;99.90
43089;DHT22;28709;52.030;5.652;2024-03-17T11:41:53;14.20;99.90
43089;DHT22;28709;52.030;5.652;2024-03-17T11:46:56;13.80;99.90
43089;DHT22;28709;52.030;5.652;2024-03-17T11:49:30;13.60;99.90
43089;DHT22;28709;52.030;5.652;2024-03-17T11:51:58;13.40;99.90
43089;DHT22;28709;52.030;5.652;2024-03-17T11:54:29;13.40;99.90
43089;DHT22;28709;52.030;5.652;2024-03-17T11:57:03;13.30;99.90
43089;DHT22;28709;52.030;5.652;2024-03-17T11:59:29;13.20;99.90
43089;DHT22;28709;52.030;5.652;2024-03-17T12:01:55;13.20;99.90
43089;DHT22;28709;52.030;5.652;2024-03-17T12:04:23;13.10;99.90
43089;DHT22;28709;52.030;5.652;2024-03-17T12:06:53;13.10;99.90
43089;DHT22;28709;52.030;5.652;2024-03-17T12:09:30;13.10;99.90
43089;DHT22;28709;52.030;5.652;2024-03-17T12:12:04;13.10;99.90
43089;DHT22;28709;52.030;5.652;2024-03-17T12:14:31;13.10;99.90
43089;DHT22;28709;52.030;5.652;2024-03-17T12:17:01;13.00;99.90
43089;DHT22;28709;52.030;5.652;2024-03-17T12:19:27;13.00;99.90
43089;DHT22;28709;52.030;5.652;2024-03-17T12:21:58;12.80;99.90
43089;DHT22;28709;52.030;5.652;2024-03-17T12:24:26;12.80;99.90
43089;DHT22;28709;52.030;5.652;2024-03-17T12:26:54;12.70;99.90
43089;DHT22;28709;52.030;5.652;2024-03-17T12:29:31;12.60;99.90
43089;DHT22;28709;52.030;5.652;2024-03-17T12:32:25;12.50;99.90
43089;DHT22;28709;52.030;5.652;2024-03-17T12:34:54;12.50;99.90
43089;DHT22;28709;52.030;5.652;2024-03-17T12:37:21;12.40;99.90
43089;DHT22;28709;52.030;5.652;2024-03-17T12:39:47;12.40;99.90
43089;DHT22;28709;52.030;5.652;2024-03-17T12:42:23;12.40;99.90
43089;DHT22;28709;52.030;5.652;2024-03-17T12:45:00;12.50;99.90
43089;DHT22;28709;52.030;5.652;2024-03-17T12:47:31;12.60;99.90
43089;DHT22;28709;52.030;5.652;2024-03-17T12:49:57;12.60;99.90
43089;DHT22;28709;52.030;5.652;2024-03-17T12:52:28;12.70;99.90
43089;DHT22;28709;52.030;5.652;2024-03-17T12:55:01;12.70;99.90
43089;DHT22;28709;52.030;5.652;2024-03-17T12:57:46;12.70;99.90
43089;DHT22;28709;52.030;5.652;2024-03-17T13:00:31;12.70;99.90
43089;DHT22;28709;52.030;5.652;2024-03-17T13:03:00;12.80;99.90
43089;DHT22;28709;52.030;5.652;2024-03-17T13:05:26;12.80;99.90
43089;DHT22;28709;52.030;5.652;2024-03-17T13:07:53;12.80;99.90
43089;DHT22;28709;52.030;5.652;2024-03-17T13:10:20;12.80;99.90
43089;DHT22;28709;52.030;5.652;2024-03-17T13:12:48;12.90;99.90
43089;DHT22;28709;52.030;5.652;2024-03-17T13:15:15;13.00;99.90
43089;DHT22;28709;52.030;5.652;2024-03-17T13:17:44;13.00;99.90
43089;DHT22;28709;52.030;5.652;2024-03-17T13:20:15;13.00;99.90
43089;DHT22;28709;52.030;5.652;2024-03-17T13:22:45;12.90;99.90
43089;DHT22;28709;52.030;5.652;2024-03-17T13:25:29;12.80;99.90
43089;DHT22;28709;52.030;5.652;2024-03-17T13:28:00;12.70;99.90
43089;DHT22;28709;52.030;5.652;2024-03-17T13:30:26;12.80;99.90
43089;DHT22;28709;52.030;5.652;2024-03-17T13:32:54;12.70;99.90
43089;DHT22;28709;52.030;5.652;2024-03-17T13:35:28;12.80;99.90
43089;DHT22;28709;52.030;5.652;2024-03-17T13:37:55;12.80;99.90
43089;DHT22;28709;52.030;5.652;2024-03-17T13:40:22;12.80;99.90
43089;DHT22;28709;52.030;5.652;2024-03-17T13:42:52;12.80;99.90
43089;DHT22;28709;52.030;5.652;2024-03-17T13:45:20;12.80;99.90
43089;DHT22;28709;52.030;5.652;2024-03-17T13:47:52;12.80;99.90
43089;DHT22;28709;52.030;5.652;2024-03-17T13:50:19;12.80;99.90
43089;DHT22;28709;52.030;5.652;2024-03-17T13:52:44;12.70;99.90
43089;DHT22;28709;52.030;5.652;2024-03-17T13:55:17;12.80;99.90
43089;DHT22;28709;52.030;5.652;2024-03-17T13:57:44;12.80;99.90
43089;DHT22;28709;52.030;5.652;2024-03-17T14:00:11;12.80;99.90
43089;DHT22;28709;52.030;5.652;2024-03-17T14:02:44;12.80;99.90
43089;DHT22;28709;52.030;5.652;2024-03-17T14:05:15;12.80;99.90
43089;DHT22;28709;52.030;5.652;2024-03-17T14:07:42;12.80;99.90
43089;DHT22;28709;52.030;5.652;2024-03-17T14:10:09;12.80;99.90
43089;DHT22;28709;52.030;5.652;2024-03-17T14:12:36;12.80;99.90
43089;DHT22;28709;52.030;5.652;2024-03-17T14:15:04;12.80;99.90
43089;DHT22;28709;52.030;5.652;2024-03-17T14:17:36;12.80;99.90
43089;DHT22;28709;52.030;5.652;2024-03-17T14:20:02;12.90;99.90
43089;DHT22;28709;52.030;5.652;2024-03-17T14:22:29;12.90;99.90
43089;DHT22;28709;52.030;5.652;2024-03-17T14:24:54;12.90;99.90
43089;DHT22;28709;52.030;5.652;2024-03-17T14:27:20;12.90;99.90
43089;DHT22;28709;52.030;5.652;2024-03-17T14:29:46;13.00;99.90
43089;DHT22;28709;52.030;5.652;2024-03-17T14:32:12;13.00;99.90
43089;DHT22;28709;52.030;5.652;2024-03-17T14:34:39;13.00;99.90
43089;DHT22;28709;52.030;5.652;2024-03-17T14:37:05;13.10;99.90
43089;DHT22;28709;52.030;5.652;2024-03-17T14:39:31;13.20;99.90
43089;DHT22;28709;52.030;5.652;2024-03-17T14:41:56;13.20;99.90
43089;DHT22;28709;52.030;5.652;2024-03-17T14:44:23;13.30;99.90
43089;DHT22;28709;52.030;5.652;2024-03-17T14:46:49;13.40;99.90
43089;DHT22;28709;52.030;5.652;2024-03-17T14:49:18;13.40;99.90
43089;DHT22;28709;52.030;5.652;2024-03-17T14:51:44;13.40;99.90
43089;DHT22;28709;52.030;5.652;2024-03-17T14:54:09;13.50;99.90
43089;DHT22;28709;52.030;5.652;2024-03-17T14:56:36;13.50;99.90
43089;DHT22;28709;52.030;5.652;2024-03-17T14:59:02;13.50;99.90
43089;DHT22;28709;52.030;5.652;2024-03-17T15:01:27;13.50;99.90
43089;DHT22;28709;52.030;5.652;2024-03-17T15:03:56;13.50;99.90
43089;DHT22;28709;52.030;5.652;2024-03-17T15:06:22;13.50;99.90
43089;DHT22;28709;52.030;5.652;2024-03-17T15:08:48;13.50;99.90
43089;DHT22;28709;52.030;5.652;2024-03-17T15:11:13;13.50;99.90
43089;DHT22;28709;52.030;5.652;2024-03-17T15:13:39;13.60;99.90
43089;DHT22;28709;52.030;5.652;2024-03-17T15:16:07;13.60;99.90
43089;DHT22;28709;52.030;5.652;2024-03-17T15:18:33;13.60;99.90
43089;DHT22;28709;52.030;5.652;2024-03-17T15:21:02;13.60;99.90
43089;DHT22;28709;52.030;5.652;2024-03-17T15:23:30;13.60;99.90
43089;DHT22;28709;52.030;5.652;2024-03-17T15:26:03;13.60;99.90
43089;DHT22;28709;52.030;5.652;2024-03-17T15:28:39;13.60;99.90
43089;DHT22;28709;52.030;5.652;2024-03-17T15:31:08;13.60;99.90
43089;DHT22;28709;52.030;5.652;2024-03-17T15:33:34;13.60;99.90
43089;DHT22;28709;52.030;5.652;2024-03-17T15:36:01;13.50;99.90
43089;DHT22;28709;52.030;5.652;2024-03-17T15:38:30;13.50;99.90
43089;DHT22;28709;52.030;5.652;2024-03-17T15:40:57;13.40;99.90
43089;DHT22;28709;52.030;5.652;2024-03-17T15:43:22;13.40;99.90
43089;DHT22;28709;52.030;5.652;2024-03-17T15:45:48;13.30;99.90
43089;DHT22;28709;52.030;5.652;2024-03-17T15:48:13;13.30;99.90
43089;DHT22;28709;52.030;5.652;2024-03-17T15:50:39;13.30;99.90
43089;DHT22;28709;52.030;5.652;2024-03-17T15:53:05;13.30;99.90
43089;DHT22;28709;52.030;5.652;2024-03-17T15:55:32;13.30;99.90
43089;DHT22;28709;52.030;5.652;2024-03-17T15:57:58;13.30;99.90
43089;DHT22;28709;52.030;5.652;2024-03-17T16:00:23;13.30;99.90
43089;DHT22;28709;52.030;5.652;2024-03-17T16:02:49;13.30;99.90